sensor_id;sensor_type;location;lat;lon;timestamp;temperature;humidity
42031;DHT22;27709;52.036;5.906;2022-07-23T00:00:28;16.50;98.40
42031;DHT22;27709;52.036;5.906;2022-07-23T00:02:54;16.50;98.40
42031;DHT22;27709;52.036;5.906;2022-07-23T00:05:19;16.50;98.40
42031;DHT22;27709;52.036;5.906;2022-07-23T00:07:45;16.40;98.50
42031;DHT22;27709;52.036;5.906;2022-07-23T00:10:11;16.40;98.70
42031;DHT22;27709;52.036;5.906;2022-07-23T00:12:37;16.40;98.70
42031;DHT22;27709;52.036;5.906;2022-07-23T00:15:05;16.40;98.70
42031;DHT22;27709;52.036;5.906;2022-07-23T00:17:31;16.40;98.70
42031;DHT22;27709;52.036;5.906;2022-07-23T00:19:56;16.30;98.70
42031;DHT22;27709;52.036;5.906;2022-07-23T00:22:22;16.30;98.70
42031;DHT22;27709;52.036;5.906;2022-07-23T00:24:47;16.20;98.60
42031;DHT22;27709;52.036;5.906;2022-07-23T00:27:13;16.10;98.70
42031;DHT22;27709;52.036;5.906;2022-07-23T00:29:38;16.10;98.70
42031;DHT22;27709;52.036;5.906;2022-07-23T00:32:04;16.10;98.60
42031;DHT22;27709;52.036;5.906;2022-07-23T00:34:30;16.00;98.60
42031;DHT22;27709;52.036;5.906;2022-07-23T00:36:56;16.00;98.80
42031;DHT22;27709;52.036;5.906;2022-07-23T00:39:21;15.90;98.70
42031;DHT22;27709;52.036;5.906;2022-07-23T00:41:48;15.90;98.80
42031;DHT22;27709;52.036;5.906;2022-07-23T00:44:25;15.90;98.90
42031;DHT22;27709;52.036;5.906;2022-07-23T00:46:53;15.80;98.90
42031;DHT22;27709;52.036;5.906;2022-07-23T00:49:22;15.80;99.00
42031;DHT22;27709;52.036;5.906;2022-07-23T00:51:50;15.80;99.10
42031;DHT22;27709;52.036;5.906;2022-07-23T00:54:17;15.70;99.10
42031;DHT22;27709;52.036;5.906;2022-07-23T00:56:44;15.70;99.20
42031;DHT22;27709;52.036;5.906;2022-07-23T00:59:10;15.70;99.30
42031;DHT22;27709;52.036;5.906;2022-07-23T01:01:36;15.60;99.30
42031;DHT22;27709;52.036;5.906;2022-07-23T01:04:02;15.60;99.40
42031;DHT22;27709;52.036;5.906;2022-07-23T01:06:27;15.50;99.30
42031;DHT22;27709;52.036;5.906;2022-07-23T01:08:54;15.50;99.20
42031;DHT22;27709;52.036;5.906;2022-07-23T01:11:21;15.50;99.20
42031;DHT22;27709;52.036;5.906;2022-07-23T01:13:48;15.50;99.20
42031;DHT22;27709;52.036;5.906;2022-07-23T01:16:13;15.50;99.10
42031;DHT22;27709;52.036;5.906;2022-07-23T01:18:39;15.50;99.10
42031;DHT22;27709;52.036;5.906;2022-07-23T01:21:05;15.40;99.10
42031;DHT22;27709;52.036;5.906;2022-07-23T01:23:31;15.40;99.10
42031;DHT22;27709;52.036;5.906;2022-07-23T01:25:56;15.40;99.10
42031;DHT22;27709;52.036;5.906;2022-07-23T01:28:22;15.30;99.20
42031;DHT22;27709;52.036;5.906;2022-07-23T01:30:49;15.30;99.20
42031;DHT22;27709;52.036;5.906;2022-07-23T01:33:15;15.30;99.20
42031;DHT22;27709;52.036;5.906;2022-07-23T01:35:42;15.30;99.30
42031;DHT22;27709;52.036;5.906;2022-07-23T01:38:07;15.20;99.20
42031;DHT22;27709;52.036;5.906;2022-07-23T01:40:33;15.20;99.30
42031;DHT22;27709;52.036;5.906;2022-07-23T01:42:59;15.20;99.30
42031;DHT22;27709;52.036;5.906;2022-07-23T01:45:24;15.20;99.30
42031;DHT22;27709;52.036;5.906;2022-07-23T01:47:50;15.10;99.20
42031;DHT22;27709;52.036;5.906;2022-07-23T01:50:15;15.10;99.30
42031;DHT22;27709;52.036;5.906;2022-07-23T01:52:41;15.10;99.40
42031;DHT22;27709;52.036;5.906;2022-07-23T01:55:07;15.20;99.40
42031;DHT22;27709;52.036;5.906;2022-07-23T01:57:32;15.20;99.40
42031;DHT22;27709;52.036;5.906;2022-07-23T01:59:58;15.10;99.30
42031;DHT22;27709;52.036;5.906;2022-07-23T02:02:24;15.10;99.40
42031;DHT22;27709;52.036;5.906;2022-07-23T02:04:49;15.10;99.40
42031;DHT22;27709;52.036;5.906;2022-07-23T02:07:15;15.10;99.50
42031;DHT22;27709;52.036;5.906;2022-07-23T02:09:40;15.00;99.70
42031;DHT22;27709;52.036;5.906;2022-07-23T02:12:06;15.00;99.80
42031;DHT22;27709;52.036;5.906;2022-07-23T02:14:32;15.10;99.80
42031;DHT22;27709;52.036;5.906;2022-07-23T02:16:58;15.10;99.70
42031;DHT22;27709;52.036;5.906;2022-07-23T02:19:24;15.00;99.60
42031;DHT22;27709;52.036;5.906;2022-07-23T02:21:50;15.00;99.50
42031;DHT22;27709;52.036;5.906;2022-07-23T02:24:18;14.90;99.60
42031;DHT22;27709;52.036;5.906;2022-07-23T02:26:44;14.90;99.60
42031;DHT22;27709;52.036;5.906;2022-07-23T02:29:12;14.80;99.60
42031;DHT22;27709;52.036;5.906;2022-07-23T02:31:37;14.70;99.60
42031;DHT22;27709;52.036;5.906;2022-07-23T02:34:03;14.70;99.60
42031;DHT22;27709;52.036;5.906;2022-07-23T02:36:29;14.60;99.50
42031;DHT22;27709;52.036;5.906;2022-07-23T02:38:55;14.60;99.50
42031;DHT22;27709;52.036;5.906;2022-07-23T02:41:21;14.50;99.60
42031;DHT22;27709;52.036;5.906;2022-07-23T02:43:47;14.50;99.60
42031;DHT22;27709;52.036;5.906;2022-07-23T02:46:13;14.50;99.70
42031;DHT22;27709;52.036;5.906;2022-07-23T02:48:38;14.50;99.60
42031;DHT22;27709;52.036;5.906;2022-07-23T02:51:04;14.50;99.60
42031;DHT22;27709;52.036;5.906;2022-07-23T02:53:31;14.40;99.60
42031;DHT22;27709;52.036;5.906;2022-07-23T02:55:57;14.40;99.60
42031;DHT22;27709;52.036;5.906;2022-07-23T02:58:22;14.40;99.60
42031;DHT22;27709;52.036;5.906;2022-07-23T03:00:48;14.40;99.50
42031;DHT22;27709;52.036;5.906;2022-07-23T03:03:14;14.40;99.60
42031;DHT22;27709;52.036;5.906;2022-07-23T03:05:39;14.30;99.60
42031;DHT22;27709;52.036;5.906;2022-07-23T03:08:15;14.30;99.50
42031;DHT22;27709;52.036;5.906;2022-07-23T03:10:40;14.30;99.50
42031;DHT22;27709;52.036;5.906;2022-07-23T03:13:07;14.30;99.50
42031;DHT22;27709;52.036;5.906;2022-07-23T03:15:33;14.40;99.60
42031;DHT22;27709;52.036;5.906;2022-07-23T03:17:58;14.30;99.50
42031;DHT22;27709;52.036;5.906;2022-07-23T03:20:24;14.30;99.50
42031;DHT22;27709;52.036;5.906;2022-07-23T03:22:50;14.30;99.50
42031;DHT22;27709;52.036;5.906;2022-07-23T03:25:15;14.20;99.50
42031;DHT22;27709;52.036;5.906;2022-07-23T03:27:41;14.20;99.60
42031;DHT22;27709;52.036;5.906;2022-07-23T03:30:07;14.20;99.70
42031;DHT22;27709;52.036;5.906;2022-07-23T03:32:33;14.30;99.70
42031;DHT22;27709;52.036;5.906;2022-07-23T03:34:59;14.30;99.80
42031;DHT22;27709;52.036;5.906;2022-07-23T03:37:24;14.20;99.80
42031;DHT22;27709;52.036;5.906;2022-07-23T03:39:51;14.20;99.90
42031;DHT22;27709;52.036;5.906;2022-07-23T03:42:17;14.10;99.90
42031;DHT22;27709;52.036;5.906;2022-07-23T03:44:43;14.00;99.90
42031;DHT22;27709;52.036;5.906;2022-07-23T03:47:08;14.00;99.90
42031;DHT22;27709;52.036;5.906;2022-07-23T03:49:34;13.90;99.90
42031;DHT22;27709;52.036;5.906;2022-07-23T03:52:00;14.00;99.90
42031;DHT22;27709;52.036;5.906;2022-07-23T03:54:27;14.00;99.90
42031;DHT22;27709;52.036;5.906;2022-07-23T03:56:52;14.00;99.90
42031;DHT22;27709;52.036;5.906;2022-07-23T03:59:19;14.00;99.90
42031;DHT22;27709;52.036;5.906;2022-07-23T04:01:44;14.00;99.90
42031;DHT22;27709;52.036;5.906;2022-07-23T04:04:10;14.00;99.90
42031;DHT22;27709;52.036;5.906;2022-07-23T04:06:36;14.00;99.90
42031;DHT22;27709;52.036;5.906;2022-07-23T04:09:02;13.90;99.80
42031;DHT22;27709;52.036;5.906;2022-07-23T04:11:27;13.90;99.80
42031;DHT22;27709;52.036;5.906;2022-07-23T04:13:53;13.80;99.70
42031;DHT22;27709;52.036;5.906;2022-07-23T04:16:18;13.80;99.80
42031;DHT22;27709;52.036;5.906;2022-07-23T04:18:44;13.80;99.80
42031;DHT22;27709;52.036;5.906;2022-07-23T04:21:09;13.90;99.70
42031;DHT22;27709;52.036;5.906;2022-07-23T04:23:35;13.90;99.70
42031;DHT22;27709;52.036;5.906;2022-07-23T04:26:01;13.90;99.60
42031;DHT22;27709;52.036;5.906;2022-07-23T04:28:26;13.90;99.60
42031;DHT22;27709;52.036;5.906;2022-07-23T04:30:52;13.80;99.60
42031;DHT22;27709;52.036;5.906;2022-07-23T04:33:18;13.90;99.60
42031;DHT22;27709;52.036;5.906;2022-07-23T04:35:43;13.90;99.60
42031;DHT22;27709;52.036;5.906;2022-07-23T04:38:09;13.90;99.60
42031;DHT22;27709;52.036;5.906;2022-07-23T04:40:34;13.90;99.60
42031;DHT22;27709;52.036;5.906;2022-07-23T04:43:00;13.90;99.60
42031;DHT22;27709;52.036;5.906;2022-07-23T04:45:25;13.90;99.70
42031;DHT22;27709;52.036;5.906;2022-07-23T04:47:51;13.90;99.80
42031;DHT22;27709;52.036;5.906;2022-07-23T04:50:17;13.90;99.90
42031;DHT22;27709;52.036;5.906;2022-07-23T04:52:47;14.00;99.90
42031;DHT22;27709;52.036;5.906;2022-07-23T04:55:14;14.00;99.90
42031;DHT22;27709;52.036;5.906;2022-07-23T04:57:40;14.10;99.80
42031;DHT22;27709;52.036;5.906;2022-07-23T05:00:06;14.20;99.70
42031;DHT22;27709;52.036;5.906;2022-07-23T05:02:32;14.20;99.60
42031;DHT22;27709;52.036;5.906;2022-07-23T05:04:58;14.20;99.60
42031;DHT22;27709;52.036;5.906;2022-07-23T05:07:24;14.20;99.60
42031;DHT22;27709;52.036;5.906;2022-07-23T05:09:50;14.30;99.60
42031;DHT22;27709;52.036;5.906;2022-07-23T05:12:16;14.30;99.70
42031;DHT22;27709;52.036;5.906;2022-07-23T05:14:42;14.40;99.80
42031;DHT22;27709;52.036;5.906;2022-07-23T05:17:08;14.40;99.90
42031;DHT22;27709;52.036;5.906;2022-07-23T05:19:34;14.40;99.90
42031;DHT22;27709;52.036;5.906;2022-07-23T05:21:59;14.50;99.90
42031;DHT22;27709;52.036;5.906;2022-07-23T05:24:25;14.50;99.90
42031;DHT22;27709;52.036;5.906;2022-07-23T05:26:51;14.50;99.90
42031;DHT22;27709;52.036;5.906;2022-07-23T05:29:22;14.50;99.90
42031;DHT22;27709;52.036;5.906;2022-07-23T05:31:58;14.60;99.90
42031;DHT22;27709;52.036;5.906;2022-07-23T05:34:23;14.70;99.90
42031;DHT22;27709;52.036;5.906;2022-07-23T05:36:49;14.70;99.90
42031;DHT22;27709;52.036;5.906;2022-07-23T05:39:15;14.80;99.90
42031;DHT22;27709;52.036;5.906;2022-07-23T05:41:40;14.90;99.90
42031;DHT22;27709;52.036;5.906;2022-07-23T05:44:06;15.00;99.90
42031;DHT22;27709;52.036;5.906;2022-07-23T05:46:31;15.00;99.90
42031;DHT22;27709;52.036;5.906;2022-07-23T05:48:57;15.20;99.90
42031;DHT22;27709;52.036;5.906;2022-07-23T05:51:23;15.30;99.90
42031;DHT22;27709;52.036;5.906;2022-07-23T05:53:50;15.40;99.90
42031;DHT22;27709;52.036;5.906;2022-07-23T05:56:16;15.50;99.80
42031;DHT22;27709;52.036;5.906;2022-07-23T05:58:41;15.70;99.80
42031;DHT22;27709;52.036;5.906;2022-07-23T06:01:07;15.80;99.70
42031;DHT22;27709;52.036;5.906;2022-07-23T06:03:33;15.70;99.70
42031;DHT22;27709;52.036;5.906;2022-07-23T06:05:58;15.80;99.80
42031;DHT22;27709;52.036;5.906;2022-07-23T06:08:24;15.80;99.80
42031;DHT22;27709;52.036;5.906;2022-07-23T06:10:49;15.90;99.90
42031;DHT22;27709;52.036;5.906;2022-07-23T06:13:18;16.00;99.90
42031;DHT22;27709;52.036;5.906;2022-07-23T06:15:43;16.10;99.80
42031;DHT22;27709;52.036;5.906;2022-07-23T06:18:28;16.50;99.90
42031;DHT22;27709;52.036;5.906;2022-07-23T06:20:53;17.20;99.90
42031;DHT22;27709;52.036;5.906;2022-07-23T06:23:19;18.10;99.00
42031;DHT22;27709;52.036;5.906;2022-07-23T06:25:45;19.00;97.40
42031;DHT22;27709;52.036;5.906;2022-07-23T06:28:11;20.00;95.80
42031;DHT22;27709;52.036;5.906;2022-07-23T06:30:36;20.80;94.40
42031;DHT22;27709;52.036;5.906;2022-07-23T06:33:02;21.50;92.50
42031;DHT22;27709;52.036;5.906;2022-07-23T06:35:27;22.10;91.80
42031;DHT22;27709;52.036;5.906;2022-07-23T06:37:53;22.70;90.40
42031;DHT22;27709;52.036;5.906;2022-07-23T06:40:18;23.30;89.90
42031;DHT22;27709;52.036;5.906;2022-07-23T06:42:45;23.90;85.20
42031;DHT22;27709;52.036;5.906;2022-07-23T06:45:11;24.30;84.60
42031;DHT22;27709;52.036;5.906;2022-07-23T06:47:37;24.70;84.10
42031;DHT22;27709;52.036;5.906;2022-07-23T06:50:04;25.00;80.50
42031;DHT22;27709;52.036;5.906;2022-07-23T06:52:36;25.30;79.70
42031;DHT22;27709;52.036;5.906;2022-07-23T06:55:02;25.60;77.60
42031;DHT22;27709;52.036;5.906;2022-07-23T06:57:28;25.90;77.40
42031;DHT22;27709;52.036;5.906;2022-07-23T06:59:53;26.20;76.10
42031;DHT22;27709;52.036;5.906;2022-07-23T07:02:19;26.30;73.90
42031;DHT22;27709;52.036;5.906;2022-07-23T07:04:44;26.40;73.10
42031;DHT22;27709;52.036;5.906;2022-07-23T07:07:10;26.60;73.00
42031;DHT22;27709;52.036;5.906;2022-07-23T07:09:37;26.90;73.30
42031;DHT22;27709;52.036;5.906;2022-07-23T07:12:03;27.00;73.10
42031;DHT22;27709;52.036;5.906;2022-07-23T07:14:29;27.30;72.80
42031;DHT22;27709;52.036;5.906;2022-07-23T07:16:55;27.20;71.60
42031;DHT22;27709;52.036;5.906;2022-07-23T07:19:20;26.80;72.30
42031;DHT22;27709;52.036;5.906;2022-07-23T07:21:46;26.30;74.50
42031;DHT22;27709;52.036;5.906;2022-07-23T07:24:11;26.40;74.30
42031;DHT22;27709;52.036;5.906;2022-07-23T07:26:37;26.70;73.50
42031;DHT22;27709;52.036;5.906;2022-07-23T07:29:04;27.20;72.40
42031;DHT22;27709;52.036;5.906;2022-07-23T07:31:30;27.60;71.00
42031;DHT22;27709;52.036;5.906;2022-07-23T07:33:56;27.80;68.90
42031;DHT22;27709;52.036;5.906;2022-07-23T07:36:22;28.00;67.10
42031;DHT22;27709;52.036;5.906;2022-07-23T07:38:48;28.20;66.40
42031;DHT22;27709;52.036;5.906;2022-07-23T07:41:13;28.50;66.20
42031;DHT22;27709;52.036;5.906;2022-07-23T07:43:39;28.80;66.90
42031;DHT22;27709;52.036;5.906;2022-07-23T07:46:05;29.10;66.20
42031;DHT22;27709;52.036;5.906;2022-07-23T07:48:36;29.40;65.80
42031;DHT22;27709;52.036;5.906;2022-07-23T07:51:02;29.70;63.90
42031;DHT22;27709;52.036;5.906;2022-07-23T07:53:27;30.10;64.20
42031;DHT22;27709;52.036;5.906;2022-07-23T07:55:53;30.40;61.50
42031;DHT22;27709;52.036;5.906;2022-07-23T07:58:18;30.40;59.30
42031;DHT22;27709;52.036;5.906;2022-07-23T08:00:44;30.50;60.10
42031;DHT22;27709;52.036;5.906;2022-07-23T08:03:09;30.60;61.00
42031;DHT22;27709;52.036;5.906;2022-07-23T08:05:35;30.90;59.90
42031;DHT22;27709;52.036;5.906;2022-07-23T08:08:00;31.30;58.00
42031;DHT22;27709;52.036;5.906;2022-07-23T08:10:27;31.30;57.40
42031;DHT22;27709;52.036;5.906;2022-07-23T08:12:54;31.40;57.20
42031;DHT22;27709;52.036;5.906;2022-07-23T08:15:28;31.50;59.50
42031;DHT22;27709;52.036;5.906;2022-07-23T08:17:55;31.80;57.30
42031;DHT22;27709;52.036;5.906;2022-07-23T08:20:22;31.80;56.30
42031;DHT22;27709;52.036;5.906;2022-07-23T08:22:56;31.30;55.80
42031;DHT22;27709;52.036;5.906;2022-07-23T08:25:44;31.10;56.90
42031;DHT22;27709;52.036;5.906;2022-07-23T08:28:11;31.00;56.30
42031;DHT22;27709;52.036;5.906;2022-07-23T08:30:37;31.00;56.50
42031;DHT22;27709;52.036;5.906;2022-07-23T08:33:05;30.90;56.30
42031;DHT22;27709;52.036;5.906;2022-07-23T08:35:33;30.90;56.10
42031;DHT22;27709;52.036;5.906;2022-07-23T08:38:02;31.00;55.90
42031;DHT22;27709;52.036;5.906;2022-07-23T08:40:33;31.20;56.30
42031;DHT22;27709;52.036;5.906;2022-07-23T08:42:59;31.30;54.70
42031;DHT22;27709;52.036;5.906;2022-07-23T08:45:26;30.90;56.10
42031;DHT22;27709;52.036;5.906;2022-07-23T08:47:56;31.00;56.60
42031;DHT22;27709;52.036;5.906;2022-07-23T08:50:24;31.10;55.00
42031;DHT22;27709;52.036;5.906;2022-07-23T08:52:51;31.20;54.80
42031;DHT22;27709;52.036;5.906;2022-07-23T08:55:19;31.40;55.10
42031;DHT22;27709;52.036;5.906;2022-07-23T08:57:48;31.70;53.70
42031;DHT22;27709;52.036;5.906;2022-07-23T09:00:14;31.80;55.30
42031;DHT22;27709;52.036;5.906;2022-07-23T09:02:41;31.80;54.30
42031;DHT22;27709;52.036;5.906;2022-07-23T09:05:09;31.90;54.30
42031;DHT22;27709;52.036;5.906;2022-07-23T09:07:37;31.80;53.50
42031;DHT22;27709;52.036;5.906;2022-07-23T09:10:09;31.80;55.30
42031;DHT22;27709;52.036;5.906;2022-07-23T09:12:36;32.00;54.40
42031;DHT22;27709;52.036;5.906;2022-07-23T09:15:07;32.00;53.10
42031;DHT22;27709;52.036;5.906;2022-07-23T09:17:39;32.10;52.70
42031;DHT22;27709;52.036;5.906;2022-07-23T09:20:13;32.20;53.30
42031;DHT22;27709;52.036;5.906;2022-07-23T09:22:49;32.30;52.00
42031;DHT22;27709;52.036;5.906;2022-07-23T09:25:19;32.40;51.30
42031;DHT22;27709;52.036;5.906;2022-07-23T09:30:13;32.40;52.00
42031;DHT22;27709;52.036;5.906;2022-07-23T09:32:39;32.40;51.80
42031;DHT22;27709;52.036;5.906;2022-07-23T09:35:06;32.30;51.20
42031;DHT22;27709;52.036;5.906;2022-07-23T09:37:31;32.00;49.40
42031;DHT22;27709;52.036;5.906;2022-07-23T09:40:09;31.90;51.30
42031;DHT22;27709;52.036;5.906;2022-07-23T09:42:37;32.00;51.60
42031;DHT22;27709;52.036;5.906;2022-07-23T09:45:03;32.00;50.30
42031;DHT22;27709;52.036;5.906;2022-07-23T09:47:31;31.80;49.90
42031;DHT22;27709;52.036;5.906;2022-07-23T09:52:28;31.20;49.50
42031;DHT22;27709;52.036;5.906;2022-07-23T09:54:59;31.20;51.00
42031;DHT22;27709;52.036;5.906;2022-07-23T09:57:46;31.20;51.40
42031;DHT22;27709;52.036;5.906;2022-07-23T10:00:16;31.20;52.20
42031;DHT22;27709;52.036;5.906;2022-07-23T10:02:42;31.30;51.80
42031;DHT22;27709;52.036;5.906;2022-07-23T10:05:11;31.50;51.50
42031;DHT22;27709;52.036;5.906;2022-07-23T10:07:40;31.50;52.40
42031;DHT22;27709;52.036;5.906;2022-07-23T10:10:07;31.60;53.30
42031;DHT22;27709;52.036;5.906;2022-07-23T10:12:33;31.70;50.50
42031;DHT22;27709;52.036;5.906;2022-07-23T10:14:59;31.50;49.10
42031;DHT22;27709;52.036;5.906;2022-07-23T10:17:27;31.40;52.40
42031;DHT22;27709;52.036;5.906;2022-07-23T10:19:52;31.40;52.00
42031;DHT22;27709;52.036;5.906;2022-07-23T10:22:24;31.50;50.20
42031;DHT22;27709;52.036;5.906;2022-07-23T10:27:39;31.20;52.10
42031;DHT22;27709;52.036;5.906;2022-07-23T10:33:17;31.30;51.90
42031;DHT22;27709;52.036;5.906;2022-07-23T10:38:53;31.20;52.10
42031;DHT22;27709;52.036;5.906;2022-07-23T10:41:32;31.10;52.70
42031;DHT22;27709;52.036;5.906;2022-07-23T10:44:06;30.90;53.40
42031;DHT22;27709;52.036;5.906;2022-07-23T10:46:32;31.00;53.60
42031;DHT22;27709;52.036;5.906;2022-07-23T10:49:22;31.00;54.80
42031;DHT22;27709;52.036;5.906;2022-07-23T10:57:20;30.70;54.20
42031;DHT22;27709;52.036;5.906;2022-07-23T11:02:33;30.70;53.70
42031;DHT22;27709;52.036;5.906;2022-07-23T11:05:03;30.50;52.40
42031;DHT22;27709;52.036;5.906;2022-07-23T11:07:29;30.40;54.90
42031;DHT22;27709;52.036;5.906;2022-07-23T11:09:55;30.50;55.60
42031;DHT22;27709;52.036;5.906;2022-07-23T11:15:13;30.60;54.20
42031;DHT22;27709;52.036;5.906;2022-07-23T11:17:58;30.50;52.80
42031;DHT22;27709;52.036;5.906;2022-07-23T11:20:25;30.50;54.50
42031;DHT22;27709;52.036;5.906;2022-07-23T11:22:55;30.60;55.10
42031;DHT22;27709;52.036;5.906;2022-07-23T11:27:47;30.80;54.40
42031;DHT22;27709;52.036;5.906;2022-07-23T11:35:42;30.50;54.70
42031;DHT22;27709;52.036;5.906;2022-07-23T11:38:17;30.50;54.30
42031;DHT22;27709;52.036;5.906;2022-07-23T11:40:51;30.70;54.10
42031;DHT22;27709;52.036;5.906;2022-07-23T11:43:20;30.80;53.80
42031;DHT22;27709;52.036;5.906;2022-07-23T11:45:48;30.90;52.10
42031;DHT22;27709;52.036;5.906;2022-07-23T11:48:29;30.70;52.00
42031;DHT22;27709;52.036;5.906;2022-07-23T11:50:56;30.60;52.50
42031;DHT22;27709;52.036;5.906;2022-07-23T11:53:23;30.60;53.10
42031;DHT22;27709;52.036;5.906;2022-07-23T11:55:50;30.70;53.50
42031;DHT22;27709;52.036;5.906;2022-07-23T11:58:15;30.70;53.00
42031;DHT22;27709;52.036;5.906;2022-07-23T12:00:41;30.60;52.00
42031;DHT22;27709;52.036;5.906;2022-07-23T12:03:07;30.50;52.30
42031;DHT22;27709;52.036;5.906;2022-07-23T12:05:37;30.50;52.60
42031;DHT22;27709;52.036;5.906;2022-07-23T12:08:05;30.50;52.00
42031;DHT22;27709;52.036;5.906;2022-07-23T12:10:38;30.30;51.40
42031;DHT22;27709;52.036;5.906;2022-07-23T12:13:06;30.20;51.40
42031;DHT22;27709;52.036;5.906;2022-07-23T12:15:56;30.10;52.30
42031;DHT22;27709;52.036;5.906;2022-07-23T12:18:24;30.20;52.10
42031;DHT22;27709;52.036;5.906;2022-07-23T12:20:53;30.10;53.40
42031;DHT22;27709;52.036;5.906;2022-07-23T12:23:21;30.20;53.10
42031;DHT22;27709;52.036;5.906;2022-07-23T12:25:48;30.20;51.30
42031;DHT22;27709;52.036;5.906;2022-07-23T12:28:28;30.20;51.60
42031;DHT22;27709;52.036;5.906;2022-07-23T12:30:55;30.30;52.00
42031;DHT22;27709;52.036;5.906;2022-07-23T12:33:32;30.30;51.70
42031;DHT22;27709;52.036;5.906;2022-07-23T12:36:00;30.20;50.40
42031;DHT22;27709;52.036;5.906;2022-07-23T12:38:29;30.10;50.90
42031;DHT22;27709;52.036;5.906;2022-07-23T12:41:01;30.10;50.60
42031;DHT22;27709;52.036;5.906;2022-07-23T12:43:31;29.80;51.20
42031;DHT22;27709;52.036;5.906;2022-07-23T12:46:18;29.70;51.60
42031;DHT22;27709;52.036;5.906;2022-07-23T12:51:25;28.90;53.00
42031;DHT22;27709;52.036;5.906;2022-07-23T12:53:56;28.50;54.00
42031;DHT22;27709;52.036;5.906;2022-07-23T12:56:33;28.50;54.60
42031;DHT22;27709;52.036;5.906;2022-07-23T12:59:10;28.50;54.60
42031;DHT22;27709;52.036;5.906;2022-07-23T13:01:41;28.50;54.20
42031;DHT22;27709;52.036;5.906;2022-07-23T13:06:39;28.70;54.80
42031;DHT22;27709;52.036;5.906;2022-07-23T13:09:07;28.90;55.50
42031;DHT22;27709;52.036;5.906;2022-07-23T13:11:33;28.90;52.70
42031;DHT22;27709;52.036;5.906;2022-07-23T13:14:00;28.90;54.80
42031;DHT22;27709;52.036;5.906;2022-07-23T13:16:27;29.00;55.80
42031;DHT22;27709;52.036;5.906;2022-07-23T13:18:52;29.00;55.30
42031;DHT22;27709;52.036;5.906;2022-07-23T13:21:18;28.90;54.50
42031;DHT22;27709;52.036;5.906;2022-07-23T13:23:44;28.80;54.90
42031;DHT22;27709;52.036;5.906;2022-07-23T13:26:09;28.80;55.50
42031;DHT22;27709;52.036;5.906;2022-07-23T13:28:35;28.90;55.20
42031;DHT22;27709;52.036;5.906;2022-07-23T13:31:01;29.00;55.90
42031;DHT22;27709;52.036;5.906;2022-07-23T13:33:30;29.30;55.70
42031;DHT22;27709;52.036;5.906;2022-07-23T13:35:55;29.30;52.70
42031;DHT22;27709;52.036;5.906;2022-07-23T13:38:21;28.90;52.90
42031;DHT22;27709;52.036;5.906;2022-07-23T13:40:48;28.90;54.90
42031;DHT22;27709;52.036;5.906;2022-07-23T13:43:17;29.00;55.50
42031;DHT22;27709;52.036;5.906;2022-07-23T13:45:43;28.90;55.00
42031;DHT22;27709;52.036;5.906;2022-07-23T13:48:10;28.60;55.40
42031;DHT22;27709;52.036;5.906;2022-07-23T13:50:37;28.40;56.10
42031;DHT22;27709;52.036;5.906;2022-07-23T13:53:05;28.20;56.80
42031;DHT22;27709;52.036;5.906;2022-07-23T13:55:32;28.10;56.40
42031;DHT22;27709;52.036;5.906;2022-07-23T13:57:58;28.20;56.80
42031;DHT22;27709;52.036;5.906;2022-07-23T14:00:24;28.50;55.90
42031;DHT22;27709;52.036;5.906;2022-07-23T14:02:50;28.50;55.70
42031;DHT22;27709;52.036;5.906;2022-07-23T14:05:16;28.60;56.10
42031;DHT22;27709;52.036;5.906;2022-07-23T14:07:41;28.70;56.00
42031;DHT22;27709;52.036;5.906;2022-07-23T14:10:10;28.70;55.80
42031;DHT22;27709;52.036;5.906;2022-07-23T14:12:36;28.70;55.80
42031;DHT22;27709;52.036;5.906;2022-07-23T14:15:02;28.80;56.30
42031;DHT22;27709;52.036;5.906;2022-07-23T14:17:27;28.90;56.40
42031;DHT22;27709;52.036;5.906;2022-07-23T14:19:53;29.10;54.50
42031;DHT22;27709;52.036;5.906;2022-07-23T14:22:18;29.00;53.90
42031;DHT22;27709;52.036;5.906;2022-07-23T14:24:44;29.00;55.30
42031;DHT22;27709;52.036;5.906;2022-07-23T14:27:10;29.10;55.00
42031;DHT22;27709;52.036;5.906;2022-07-23T14:29:35;29.20;54.40
42031;DHT22;27709;52.036;5.906;2022-07-23T14:32:02;29.10;53.60
42031;DHT22;27709;52.036;5.906;2022-07-23T14:34:28;29.10;54.30
42031;DHT22;27709;52.036;5.906;2022-07-23T14:36:53;29.10;54.50
42031;DHT22;27709;52.036;5.906;2022-07-23T14:39:19;29.00;55.00
42031;DHT22;27709;52.036;5.906;2022-07-23T14:41:44;29.00;55.20
42031;DHT22;27709;52.036;5.906;2022-07-23T14:44:10;28.90;54.90
42031;DHT22;27709;52.036;5.906;2022-07-23T14:46:36;28.80;54.90
42031;DHT22;27709;52.036;5.906;2022-07-23T14:49:02;28.80;54.50
42031;DHT22;27709;52.036;5.906;2022-07-23T14:51:27;28.80;54.20
42031;DHT22;27709;52.036;5.906;2022-07-23T14:53:53;28.70;54.70
42031;DHT22;27709;52.036;5.906;2022-07-23T14:56:19;28.60;55.40
42031;DHT22;27709;52.036;5.906;2022-07-23T14:58:44;28.40;55.80
42031;DHT22;27709;52.036;5.906;2022-07-23T15:01:10;28.20;56.30
42031;DHT22;27709;52.036;5.906;2022-07-23T15:03:35;28.10;56.70
42031;DHT22;27709;52.036;5.906;2022-07-23T15:06:01;28.00;57.20
42031;DHT22;27709;52.036;5.906;2022-07-23T15:08:26;27.90;58.20
42031;DHT22;27709;52.036;5.906;2022-07-23T15:10:52;27.90;58.20
42031;DHT22;27709;52.036;5.906;2022-07-23T15:13:17;27.80;58.40
42031;DHT22;27709;52.036;5.906;2022-07-23T15:15:43;27.80;57.90
42031;DHT22;27709;52.036;5.906;2022-07-23T15:18:09;27.70;58.30
42031;DHT22;27709;52.036;5.906;2022-07-23T15:20:35;27.60;58.90
42031;DHT22;27709;52.036;5.906;2022-07-23T15:23:02;27.50;59.10
42031;DHT22;27709;52.036;5.906;2022-07-23T15:25:28;27.50;59.10
42031;DHT22;27709;52.036;5.906;2022-07-23T15:27:53;27.40;58.70
42031;DHT22;27709;52.036;5.906;2022-07-23T15:30:19;27.30;58.40
42031;DHT22;27709;52.036;5.906;2022-07-23T15:32:44;27.20;57.90
42031;DHT22;27709;52.036;5.906;2022-07-23T15:35:10;27.10;57.60
42031;DHT22;27709;52.036;5.906;2022-07-23T15:37:35;27.00;57.30
42031;DHT22;27709;52.036;5.906;2022-07-23T15:40:02;27.00;56.80
42031;DHT22;27709;52.036;5.906;2022-07-23T15:42:30;27.00;56.70
42031;DHT22;27709;52.036;5.906;2022-07-23T15:44:56;27.00;57.20
42031;DHT22;27709;52.036;5.906;2022-07-23T15:47:21;27.10;57.70
42031;DHT22;27709;52.036;5.906;2022-07-23T15:49:47;27.30;58.00
42031;DHT22;27709;52.036;5.906;2022-07-23T15:52:13;27.30;57.90
42031;DHT22;27709;52.036;5.906;2022-07-23T15:54:39;27.50;58.80
42031;DHT22;27709;52.036;5.906;2022-07-23T15:57:04;27.60;57.80
42031;DHT22;27709;52.036;5.906;2022-07-23T15:59:30;27.60;57.90
42031;DHT22;27709;52.036;5.906;2022-07-23T16:01:56;27.70;58.50
42031;DHT22;27709;52.036;5.906;2022-07-23T16:04:22;27.70;59.10
42031;DHT22;27709;52.036;5.906;2022-07-23T16:06:48;27.80;59.10